Tyndall Air Force Base, FL

8:28 AM CST on February 06, 2016 (GMT -0600)
Panama City Tyndall AFB | | Change Station
CLOSE
Current Station
Airport
Location: Panama City Tyndall AFB,
Elevation: 16 ft
Nearby Weather Stations

Elev 16 ft 30.07 °N, 85.58 °W | Updated 30 minutes ago

Clear
Clear
39 °F
Feels Like 36 °F
N
5
Wind Variable Wind from NNE

Today
High -- | Low -- °F
--% Chance of Precip.
Yesterday
High -- | Low -- °F
Precip. -- in
Pressure 30.34 in
Visibility 10.0 miles
Clouds Clear
Windchill 36 °F
Dew Point 32 °F
Humidity 76%
Rainfall 0.00 in
Snow Depth Not available.
6:29 AM 5:23 PM
Waning Crescent, 5% visible
METAR KPAM 061358Z AUTO 02004KT 10SM CLR 04/00 A3033 RMK AO2 SLP274 T00390001 $
Pressure 30.34 in
Visibility 10.0 miles
Clouds Clear
Windchill 36 °F
Dew Point 32 °F
Humidity 76%
Rainfall 0.00 in
Snow Depth Not available.
6:29 AM 5:23 PM
Waning Crescent, 5% visible
METAR KPAM 061358Z AUTO 02004KT 10SM CLR 04/00 A3033 RMK AO2 SLP274 T00390001 $

10-Day Weather Forecast

Almanac

Astronomy

Feb. 06, 2016 Rise Set
Actual Time
Civil Twilight
Nautical Twilight
Astronomical Twilight
Moon
Length of Visible Light
Length of Day
Tomorrow will be .
, % of the Moon is Illuminated

Today's Extremes

State Highs State Lows

Community

WunderPhotos

Upload Photos

1,890,981 photos uploaded!

WunderBlog® & News

Nearby

Air Quality

  Air Quality AQ Index Pollutant
Not available.

Snow Depth

Station Depth Elevation

Earthquake Activity

City Distance Mag. Time & Date
Minimum magnitude displayed is 2.5.

Coastal Water Temperatures

Place Temperature

Stations

Nearby Weather Stations

Station Location Temp. Windchill Dew Point Humidity Wind Precip. Elev Updated Type
                   

Watches & Warnings

There are currently no watches in effect.